sensor_id;sensor_type;location;lat;lon;timestamp;P1;durP1;ratioP1;P2;durP2;ratioP2
2289;SDS011;1153;47.986;7.898;2022-10-31T00:01:44;5.50;;;1.30;;
2289;SDS011;1153;47.986;7.898;2022-10-31T00:04:09;4.10;;;0.93;;
2289;SDS011;1153;47.986;7.898;2022-10-31T00:06:34;1.73;;;0.97;;
2289;SDS011;1153;47.986;7.898;2022-10-31T00:09:00;6.77;;;1.30;;
2289;SDS011;1153;47.986;7.898;2022-10-31T00:11:26;1.17;;;0.77;;
2289;SDS011;1153;47.986;7.898;2022-10-31T00:13:52;3.20;;;1.13;;
2289;SDS011;1153;47.986;7.898;2022-10-31T00:16:17;1.97;;;0.93;;
2289;SDS011;1153;47.986;7.898;2022-10-31T00:18:43;2.77;;;1.00;;
2289;SDS011;1153;47.986;7.898;2022-10-31T00:21:09;3.50;;;1.00;;
2289;SDS011;1153;47.986;7.898;2022-10-31T00:23:34;4.80;;;0.80;;
2289;SDS011;1153;47.986;7.898;2022-10-31T00:26:00;2.87;;;1.23;;
2289;SDS011;1153;47.986;7.898;2022-10-31T00:28:25;7.53;;;1.03;;
2289;SDS011;1153;47.986;7.898;2022-10-31T00:30:50;1.87;;;1.10;;
2289;SDS011;1153;47.986;7.898;2022-10-31T00:33:16;7.73;;;1.33;;
2289;SDS011;1153;47.986;7.898;2022-10-31T00:35:41;1.27;;;0.90;;
2289;SDS011;1153;47.986;7.898;2022-10-31T00:38:06;3.57;;;0.90;;
2289;SDS011;1153;47.986;7.898;2022-10-31T00:40:31;1.93;;;1.00;;
2289;SDS011;1153;47.986;7.898;2022-10-31T00:42:56;3.53;;;0.80;;
2289;SDS011;1153;47.986;7.898;2022-10-31T00:45:22;7.30;;;1.73;;
2289;SDS011;1153;47.986;7.898;2022-10-31T00:47:47;1.20;;;0.90;;
2289;SDS011;1153;47.986;7.898;2022-10-31T00:50:12;2.60;;;0.80;;
2289;SDS011;1153;47.986;7.898;2022-10-31T00:52:37;1.33;;;0.80;;
2289;SDS011;1153;47.986;7.898;2022-10-31T00:55:02;4.33;;;0.77;;
2289;SDS011;1153;47.986;7.898;2022-10-31T00:57:28;5.73;;;0.70;;
2289;SDS011;1153;47.986;7.898;2022-10-31T00:59:53;2.60;;;0.87;;
2289;SDS011;1153;47.986;7.898;2022-10-31T01:02:18;3.00;;;1.10;;
2289;SDS011;1153;47.986;7.898;2022-10-31T01:04:43;3.63;;;1.03;;
2289;SDS011;1153;47.986;7.898;2022-10-31T01:07:09;2.73;;;0.83;;
2289;SDS011;1153;47.986;7.898;2022-10-31T01:09:36;3.53;;;3.07;;
2289;SDS011;1153;47.986;7.898;2022-10-31T01:12:01;2.73;;;1.10;;
2289;SDS011;1153;47.986;7.898;2022-10-31T01:14:26;3.97;;;1.13;;
2289;SDS011;1153;47.986;7.898;2022-10-31T01:16:51;5.37;;;1.40;;
2289;SDS011;1153;47.986;7.898;2022-10-31T01:19:17;2.50;;;1.10;;
2289;SDS011;1153;47.986;7.898;2022-10-31T01:21:42;3.90;;;2.20;;
2289;SDS011;1153;47.986;7.898;2022-10-31T01:24:07;6.83;;;0.97;;
2289;SDS011;1153;47.986;7.898;2022-10-31T01:26:33;3.80;;;0.90;;
2289;SDS011;1153;47.986;7.898;2022-10-31T01:28:59;2.10;;;0.77;;
2289;SDS011;1153;47.986;7.898;2022-10-31T01:31:28;7.97;;;0.77;;
2289;SDS011;1153;47.986;7.898;2022-10-31T01:33:54;2.10;;;0.70;;
2289;SDS011;1153;47.986;7.898;2022-10-31T01:36:24;11.87;;;0.87;;
2289;SDS011;1153;47.986;7.898;2022-10-31T01:38:51;2.30;;;0.73;;
2289;SDS011;1153;47.986;7.898;2022-10-31T01:41:18;3.27;;;1.23;;
2289;SDS011;1153;47.986;7.898;2022-10-31T01:46:12;3.60;;;1.40;;
2289;SDS011;1153;47.986;7.898;2022-10-31T01:48:37;4.43;;;1.20;;
2289;SDS011;1153;47.986;7.898;2022-10-31T01:51:04;3.80;;;0.70;;
2289;SDS011;1153;47.986;7.898;2022-10-31T01:53:30;5.47;;;3.13;;
2289;SDS011;1153;47.986;7.898;2022-10-31T01:55:56;1.40;;;0.80;;
2289;SDS011;1153;47.986;7.898;2022-10-31T01:58:22;1.70;;;1.60;;
2289;SDS011;1153;47.986;7.898;2022-10-31T02:00:50;4.43;;;1.20;;
2289;SDS011;1153;47.986;7.898;2022-10-31T02:03:16;3.00;;;0.60;;
2289;SDS011;1153;47.986;7.898;2022-10-31T02:05:43;7.13;;;1.50;;
2289;SDS011;1153;47.986;7.898;2022-10-31T02:10:36;7.70;;;1.43;;
2289;SDS011;1153;47.986;7.898;2022-10-31T02:13:02;4.43;;;0.90;;
2289;SDS011;1153;47.986;7.898;2022-10-31T02:15:28;2.50;;;0.90;;
2289;SDS011;1153;47.986;7.898;2022-10-31T02:17:53;3.00;;;0.97;;
2289;SDS011;1153;47.986;7.898;2022-10-31T02:20:23;2.57;;;0.80;;
2289;SDS011;1153;47.986;7.898;2022-10-31T02:28:01;8.00;;;1.30;;
2289;SDS011;1153;47.986;7.898;2022-10-31T02:30:36;4.40;;;0.90;;
2289;SDS011;1153;47.986;7.898;2022-10-31T02:33:16;4.90;;;1.33;;
2289;SDS011;1153;47.986;7.898;2022-10-31T02:38:18;6.70;;;1.30;;
2289;SDS011;1153;47.986;7.898;2022-10-31T02:40:48;5.50;;;1.50;;
2289;SDS011;1153;47.986;7.898;2022-10-31T02:43:20;1.37;;;0.80;;
2289;SDS011;1153;47.986;7.898;2022-10-31T02:46:47;9.87;;;1.00;;
2289;SDS011;1153;47.986;7.898;2022-10-31T02:48:41;4.20;;;3.17;;
2289;SDS011;1153;47.986;7.898;2022-10-31T02:51:08;1.53;;;1.43;;
2289;SDS011;1153;47.986;7.898;2022-10-31T02:53:34;2.93;;;0.97;;
2289;SDS011;1153;47.986;7.898;2022-10-31T02:58:32;4.23;;;0.90;;
2289;SDS011;1153;47.986;7.898;2022-10-31T03:06:09;1.50;;;1.10;;
2289;SDS011;1153;47.986;7.898;2022-10-31T03:08:41;3.80;;;1.23;;
2289;SDS011;1153;47.986;7.898;2022-10-31T03:11:11;2.00;;;0.90;;
2289;SDS011;1153;47.986;7.898;2022-10-31T03:13:46;1.90;;;1.00;;
2289;SDS011;1153;47.986;7.898;2022-10-31T03:16:14;3.73;;;1.20;;
2289;SDS011;1153;47.986;7.898;2022-10-31T03:18:43;1.50;;;1.20;;
2289;SDS011;1153;47.986;7.898;2022-10-31T03:21:14;5.77;;;1.50;;
2289;SDS011;1153;47.986;7.898;2022-10-31T03:23:40;9.13;;;1.27;;
2289;SDS011;1153;47.986;7.898;2022-10-31T03:26:07;3.50;;;1.90;;
2289;SDS011;1153;47.986;7.898;2022-10-31T03:28:37;1.37;;;1.07;;
2289;SDS011;1153;47.986;7.898;2022-10-31T03:31:04;4.00;;;1.10;;
2289;SDS011;1153;47.986;7.898;2022-10-31T03:33:30;1.73;;;;;
2289;SDS011;1153;47.986;7.898;2022-10-31T03:36:04;1.43;;;1.30;;
2289;SDS011;1153;47.986;7.898;2022-10-31T03:38:29;2.03;;;1.60;;
2289;SDS011;1153;47.986;7.898;2022-10-31T03:40:56;2.87;;;1.20;;
2289;SDS011;1153;47.986;7.898;2022-10-31T03:43:24;2.50;;;1.30;;
2289;SDS011;1153;47.986;7.898;2022-10-31T03:45:51;1.40;;;1.10;;
2289;SDS011;1153;47.986;7.898;2022-10-31T03:48:18;1.40;;;1.10;;
2289;SDS011;1153;47.986;7.898;2022-10-31T03:53:26;4.43;;;0.80;;
2289;SDS011;1153;47.986;7.898;2022-10-31T03:55:55;1.20;;;1.00;;
2289;SDS011;1153;47.986;7.898;2022-10-31T03:58:24;2.40;;;1.00;;
2289;SDS011;1153;47.986;7.898;2022-10-31T04:00:51;1.43;;;1.00;;
2289;SDS011;1153;47.986;7.898;2022-10-31T04:03:18;1.97;;;1.00;;
2289;SDS011;1153;47.986;7.898;2022-10-31T04:05:46;1.20;;;0.70;;
2289;SDS011;1153;47.986;7.898;2022-10-31T04:08:13;3.53;;;0.97;;
2289;SDS011;1153;47.986;7.898;2022-10-31T04:10:40;6.07;;;1.03;;
2289;SDS011;1153;47.986;7.898;2022-10-31T04:13:07;1.13;;;0.90;;
2289;SDS011;1153;47.986;7.898;2022-10-31T04:15:33;5.83;;;1.43;;
2289;SDS011;1153;47.986;7.898;2022-10-31T04:17:59;1.70;;;1.07;;
2289;SDS011;1153;47.986;7.898;2022-10-31T04:20:32;3.40;;;1.80;;
2289;SDS011;1153;47.986;7.898;2022-10-31T04:22:57;3.93;;;1.27;;
2289;SDS011;1153;47.986;7.898;2022-10-31T04:25:22;1.40;;;1.00;;
2289;SDS011;1153;47.986;7.898;2022-10-31T04:27:48;2.50;;;0.83;;
2289;SDS011;1153;47.986;7.898;2022-10-31T04:30:13;4.80;;;1.10;;
2289;SDS011;1153;47.986;7.898;2022-10-31T04:32:38;3.17;;;1.30;;
2289;SDS011;1153;47.986;7.898;2022-10-31T04:35:03;6.27;;;1.37;;
2289;SDS011;1153;47.986;7.898;2022-10-31T04:37:29;3.17;;;1.30;;
2289;SDS011;1153;47.986;7.898;2022-10-31T04:39:54;4.17;;;1.00;;
2289;SDS011;1153;47.986;7.898;2022-10-31T04:42:19;2.60;;;1.17;;
2289;SDS011;1153;47.986;7.898;2022-10-31T04:44:44;3.03;;;1.73;;
2289;SDS011;1153;47.986;7.898;2022-10-31T04:47:09;2.57;;;1.17;;
2289;SDS011;1153;47.986;7.898;2022-10-31T04:49:35;3.20;;;1.17;;
2289;SDS011;1153;47.986;7.898;2022-10-31T04:52:00;4.50;;;1.30;;
2289;SDS011;1153;47.986;7.898;2022-10-31T04:54:25;2.10;;;0.90;;
2289;SDS011;1153;47.986;7.898;2022-10-31T04:56:50;2.20;;;0.70;;
2289;SDS011;1153;47.986;7.898;2022-10-31T04:59:15;3.73;;;0.73;;
2289;SDS011;1153;47.986;7.898;2022-10-31T05:01:40;2.03;;;1.30;;
2289;SDS011;1153;47.986;7.898;2022-10-31T05:04:06;5.13;;;1.00;;
2289;SDS011;1153;47.986;7.898;2022-10-31T05:06:31;3.73;;;1.70;;
2289;SDS011;1153;47.986;7.898;2022-10-31T05:08:56;5.00;;;1.90;;
2289;SDS011;1153;47.986;7.898;2022-10-31T05:11:21;3.43;;;1.20;;
2289;SDS011;1153;47.986;7.898;2022-10-31T05:13:46;2.90;;;1.10;;
2289;SDS011;1153;47.986;7.898;2022-10-31T05:16:12;4.60;;;1.23;;
2289;SDS011;1153;47.986;7.898;2022-10-31T05:18:37;2.83;;;1.30;;
2289;SDS011;1153;47.986;7.898;2022-10-31T05:21:02;2.07;;;1.00;;
2289;SDS011;1153;47.986;7.898;2022-10-31T05:23:27;4.20;;;1.13;;
2289;SDS011;1153;47.986;7.898;2022-10-31T05:25:52;4.40;;;1.50;;
2289;SDS011;1153;47.986;7.898;2022-10-31T05:28:18;3.37;;;1.97;;
2289;SDS011;1153;47.986;7.898;2022-10-31T05:30:43;1.70;;;1.60;;
2289;SDS011;1153;47.986;7.898;2022-10-31T05:33:08;2.57;;;2.37;;
2289;SDS011;1153;47.986;7.898;2022-10-31T05:35:33;7.00;;;1.17;;
2289;SDS011;1153;47.986;7.898;2022-10-31T05:37:58;3.50;;;1.53;;
2289;SDS011;1153;47.986;7.898;2022-10-31T05:40:24;5.63;;;1.20;;
2289;SDS011;1153;47.986;7.898;2022-10-31T05:42:52;2.00;;;1.67;;
2289;SDS011;1153;47.986;7.898;2022-10-31T05:45:18;3.23;;;0.93;;
2289;SDS011;1153;47.986;7.898;2022-10-31T05:48:17;4.60;;;1.60;;
2289;SDS011;1153;47.986;7.898;2022-10-31T05:50:35;5.60;;;1.17;;
2289;SDS011;1153;47.986;7.898;2022-10-31T05:53:02;1.53;;;1.10;;
2289;SDS011;1153;47.986;7.898;2022-10-31T05:55:28;2.80;;;1.03;;
2289;SDS011;1153;47.986;7.898;2022-10-31T05:57:53;2.27;;;1.10;;
2289;SDS011;1153;47.986;7.898;2022-10-31T06:00:19;2.30;;;1.67;;
2289;SDS011;1153;47.986;7.898;2022-10-31T06:02:44;4.17;;;2.30;;
2289;SDS011;1153;47.986;7.898;2022-10-31T06:05:09;3.03;;;0.97;;
2289;SDS011;1153;47.986;7.898;2022-10-31T06:07:35;3.33;;;1.57;;
2289;SDS011;1153;47.986;7.898;2022-10-31T06:10:01;4.90;;;1.60;;
2289;SDS011;1153;47.986;7.898;2022-10-31T06:12:26;1.90;;;1.50;;
2289;SDS011;1153;47.986;7.898;2022-10-31T06:14:51;6.93;;;1.43;;
2289;SDS011;1153;47.986;7.898;2022-10-31T06:17:17;1.60;;;1.50;;
2289;SDS011;1153;47.986;7.898;2022-10-31T06:19:42;2.00;;;1.73;;
2289;SDS011;1153;47.986;7.898;2022-10-31T06:22:07;2.57;;;1.30;;
2289;SDS011;1153;47.986;7.898;2022-10-31T06:24:32;4.03;;;1.60;;
2289;SDS011;1153;47.986;7.898;2022-10-31T06:26:58;4.10;;;1.50;;
2289;SDS011;1153;47.986;7.898;2022-10-31T06:29:23;7.67;;;2.53;;
2289;SDS011;1153;47.986;7.898;2022-10-31T06:31:50;4.30;;;1.67;;
2289;SDS011;1153;47.986;7.898;2022-10-31T06:34:15;7.93;;;1.53;;
2289;SDS011;1153;47.986;7.898;2022-10-31T06:36:41;2.27;;;1.50;;
2289;SDS011;1153;47.986;7.898;2022-10-31T06:39:06;4.10;;;1.20;;
2289;SDS011;1153;47.986;7.898;2022-10-31T06:41:31;1.70;;;1.13;;
2289;SDS011;1153;47.986;7.898;2022-10-31T06:43:56;3.10;;;1.03;;
2289;SDS011;1153;47.986;7.898;2022-10-31T06:46:21;5.30;;;1.20;;
2289;SDS011;1153;47.986;7.898;2022-10-31T06:48:46;3.50;;;1.70;;
2289;SDS011;1153;47.986;7.898;2022-10-31T06:51:12;3.53;;;1.30;;
2289;SDS011;1153;47.986;7.898;2022-10-31T06:53:37;4.63;;;1.30;;
2289;SDS011;1153;47.986;7.898;2022-10-31T06:56:02;6.83;;;1.60;;
2289;SDS011;1153;47.986;7.898;2022-10-31T06:58:27;3.47;;;1.73;;
2289;SDS011;1153;47.986;7.898;2022-10-31T07:00:52;10.33;;;1.80;;
2289;SDS011;1153;47.986;7.898;2022-10-31T07:03:18;3.73;;;1.57;;
2289;SDS011;1153;47.986;7.898;2022-10-31T07:05:43;4.80;;;1.97;;
2289;SDS011;1153;47.986;7.898;2022-10-31T07:08:09;1.50;;;1.40;;
2289;SDS011;1153;47.986;7.898;2022-10-31T07:10:35;3.03;;;1.47;;
2289;SDS011;1153;47.986;7.898;2022-10-31T07:13:02;5.93;;;1.97;;
2289;SDS011;1153;47.986;7.898;2022-10-31T07:15:28;3.70;;;1.40;;
2289;SDS011;1153;47.986;7.898;2022-10-31T07:17:53;4.53;;;1.90;;
2289;SDS011;1153;47.986;7.898;2022-10-31T07:20:18;3.53;;;1.60;;
2289;SDS011;1153;47.986;7.898;2022-10-31T07:22:44;3.33;;;1.60;;
2289;SDS011;1153;47.986;7.898;2022-10-31T07:25:09;5.83;;;1.87;;
2289;SDS011;1153;47.986;7.898;2022-10-31T07:27:36;1.60;;;1.50;;
2289;SDS011;1153;47.986;7.898;2022-10-31T07:30:01;11.57;;;2.10;;
2289;SDS011;1153;47.986;7.898;2022-10-31T07:32:26;2.83;;;1.97;;
2289;SDS011;1153;47.986;7.898;2022-10-31T07:34:52;3.37;;;1.90;;
2289;SDS011;1153;47.986;7.898;2022-10-31T07:37:17;3.03;;;1.63;;
2289;SDS011;1153;47.986;7.898;2022-10-31T07:39:42;2.27;;;1.40;;
2289;SDS011;1153;47.986;7.898;2022-10-31T07:42:07;2.40;;;1.80;;
2289;SDS011;1153;47.986;7.898;2022-10-31T07:44:32;3.20;;;1.80;;
2289;SDS011;1153;47.986;7.898;2022-10-31T07:46:57;3.77;;;2.40;;
2289;SDS011;1153;47.986;7.898;2022-10-31T07:49:23;10.63;;;3.43;;
2289;SDS011;1153;47.986;7.898;2022-10-31T07:51:50;4.50;;;1.80;;
2289;SDS011;1153;47.986;7.898;2022-10-31T07:54:15;6.27;;;2.53;;
2289;SDS011;1153;47.986;7.898;2022-10-31T07:56:40;5.27;;;1.47;;
2289;SDS011;1153;47.986;7.898;2022-10-31T07:59:05;4.87;;;1.80;;
2289;SDS011;1153;47.986;7.898;2022-10-31T08:01:31;5.37;;;2.10;;
2289;SDS011;1153;47.986;7.898;2022-10-31T08:03:56;5.30;;;1.63;;
2289;SDS011;1153;47.986;7.898;2022-10-31T08:06:21;3.60;;;2.03;;
2289;SDS011;1153;47.986;7.898;2022-10-31T08:08:46;2.73;;;1.30;;
2289;SDS011;1153;47.986;7.898;2022-10-31T08:11:11;6.90;;;2.17;;
2289;SDS011;1153;47.986;7.898;2022-10-31T08:13:36;4.97;;;1.67;;
2289;SDS011;1153;47.986;7.898;2022-10-31T08:16:02;2.03;;;1.83;;
2289;SDS011;1153;47.986;7.898;2022-10-31T08:18:29;3.90;;;1.20;;
2289;SDS011;1153;47.986;7.898;2022-10-31T08:20:54;5.70;;;1.80;;
2289;SDS011;1153;47.986;7.898;2022-10-31T08:23:19;2.27;;;2.07;;
2289;SDS011;1153;47.986;7.898;2022-10-31T08:25:45;4.03;;;1.40;;
2289;SDS011;1153;47.986;7.898;2022-10-31T08:28:12;4.17;;;2.00;;
2289;SDS011;1153;47.986;7.898;2022-10-31T08:30:37;5.60;;;2.00;;
2289;SDS011;1153;47.986;7.898;2022-10-31T08:33:04;2.60;;;2.00;;
2289;SDS011;1153;47.986;7.898;2022-10-31T08:35:30;3.40;;;1.53;;
2289;SDS011;1153;47.986;7.898;2022-10-31T08:37:55;2.60;;;1.93;;
2289;SDS011;1153;47.986;7.898;2022-10-31T08:40:21;5.50;;;1.93;;
2289;SDS011;1153;47.986;7.898;2022-10-31T08:42:47;2.00;;;1.70;;
2289;SDS011;1153;47.986;7.898;2022-10-31T08:45:12;3.20;;;2.03;;
2289;SDS011;1153;47.986;7.898;2022-10-31T08:47:37;12.07;;;2.17;;
2289;SDS011;1153;47.986;7.898;2022-10-31T08:50:02;4.87;;;1.33;;
2289;SDS011;1153;47.986;7.898;2022-10-31T08:52:27;2.10;;;1.50;;
2289;SDS011;1153;47.986;7.898;2022-10-31T08:54:53;3.83;;;1.50;;
2289;SDS011;1153;47.986;7.898;2022-10-31T08:57:18;3.87;;;2.07;;
2289;SDS011;1153;47.986;7.898;2022-10-31T08:59:43;2.90;;;1.63;;
2289;SDS011;1153;47.986;7.898;2022-10-31T09:02:08;8.63;;;3.03;;
2289;SDS011;1153;47.986;7.898;2022-10-31T09:04:33;5.03;;;2.40;;
2289;SDS011;1153;47.986;7.898;2022-10-31T09:06:59;4.80;;;2.57;;
2289;SDS011;1153;47.986;7.898;2022-10-31T09:09:24;5.97;;;3.20;;
2289;SDS011;1153;47.986;7.898;2022-10-31T09:11:49;4.03;;;2.27;;
2289;SDS011;1153;47.986;7.898;2022-10-31T09:14:14;6.97;;;2.73;;
2289;SDS011;1153;47.986;7.898;2022-10-31T09:16:39;4.97;;;2.80;;
2289;SDS011;1153;47.986;7.898;2022-10-31T09:19:04;3.13;;;2.50;;
2289;SDS011;1153;47.986;7.898;2022-10-31T09:21:30;3.10;;;1.53;;
2289;SDS011;1153;47.986;7.898;2022-10-31T09:23:55;5.73;;;2.67;;
2289;SDS011;1153;47.986;7.898;2022-10-31T09:26:20;11.50;;;1.90;;
2289;SDS011;1153;47.986;7.898;2022-10-31T09:28:46;6.73;;;2.00;;
2289;SDS011;1153;47.986;7.898;2022-10-31T09:31:11;3.83;;;2.03;;
2289;SDS011;1153;47.986;7.898;2022-10-31T09:33:36;4.47;;;2.10;;
2289;SDS011;1153;47.986;7.898;2022-10-31T09:36:02;4.03;;;2.47;;
2289;SDS011;1153;47.986;7.898;2022-10-31T09:38:27;6.57;;;2.90;;
2289;SDS011;1153;47.986;7.898;2022-10-31T09:40:55;8.63;;;2.00;;
2289;SDS011;1153;47.986;7.898;2022-10-31T09:50:51;5.90;;;1.93;;
2289;SDS011;1153;47.986;7.898;2022-10-31T09:56:16;3.73;;;2.00;;
2289;SDS011;1153;47.986;7.898;2022-10-31T09:58:44;4.10;;;1.87;;
2289;SDS011;1153;47.986;7.898;2022-10-31T10:01:14;4.40;;;1.33;;
2289;SDS011;1153;47.986;7.898;2022-10-31T10:03:43;1.60;;;1.30;;
2289;SDS011;1153;47.986;7.898;2022-10-31T10:06:23;4.47;;;2.13;;
2289;SDS011;1153;47.986;7.898;2022-10-31T10:08:49;2.57;;;2.37;;
2289;SDS011;1153;47.986;7.898;2022-10-31T10:11:25;2.67;;;2.23;;
2289;SDS011;1153;47.986;7.898;2022-10-31T10:14:07;13.60;;;1.87;;
2289;SDS011;1153;47.986;7.898;2022-10-31T10:27:35;4.53;;;4.13;;
2289;SDS011;1153;47.986;7.898;2022-10-31T10:32:28;5.70;;;4.27;;
2289;SDS011;1153;47.986;7.898;2022-10-31T10:34:55;3.53;;;3.33;;
2289;SDS011;1153;47.986;7.898;2022-10-31T10:37:38;4.97;;;4.50;;
2289;SDS011;1153;47.986;7.898;2022-10-31T10:40:11;5.27;;;4.87;;
2289;SDS011;1153;47.986;7.898;2022-10-31T10:42:37;7.50;;;4.93;;
2289;SDS011;1153;47.986;7.898;2022-10-31T10:45:21;6.00;;;4.53;;
2289;SDS011;1153;47.986;7.898;2022-10-31T10:48:06;4.43;;;4.03;;
2289;SDS011;1153;47.986;7.898;2022-10-31T10:50:35;9.00;;;4.43;;
2289;SDS011;1153;47.986;7.898;2022-10-31T10:57:56;4.10;;;3.80;;
2289;SDS011;1153;47.986;7.898;2022-10-31T11:02:48;10.20;;;4.00;;
2289;SDS011;1153;47.986;7.898;2022-10-31T11:05:20;7.70;;;5.00;;
2289;SDS011;1153;47.986;7.898;2022-10-31T11:07:47;7.30;;;5.07;;
2289;SDS011;1153;47.986;7.898;2022-10-31T11:10:13;4.73;;;4.17;;
2289;SDS011;1153;47.986;7.898;2022-10-31T11:12:42;5.43;;;4.30;;
2289;SDS011;1153;47.986;7.898;2022-10-31T11:15:18;11.03;;;5.43;;
2289;SDS011;1153;47.986;7.898;2022-10-31T11:17:46;5.40;;;4.90;;
2289;SDS011;1153;47.986;7.898;2022-10-31T11:22:37;7.40;;;4.20;;
2289;SDS011;1153;47.986;7.898;2022-10-31T11:25:19;6.77;;;4.37;;
2289;SDS011;1153;47.986;7.898;2022-10-31T11:27:45;5.80;;;4.60;;
2289;SDS011;1153;47.986;7.898;2022-10-31T11:30:12;8.70;;;4.20;;
2289;SDS011;1153;47.986;7.898;2022-10-31T11:32:37;4.70;;;4.30;;
2289;SDS011;1153;47.986;7.898;2022-10-31T11:35:09;9.23;;;4.20;;
2289;SDS011;1153;47.986;7.898;2022-10-31T11:37:35;3.50;;;3.17;;
2289;SDS011;1153;47.986;7.898;2022-10-31T11:40:05;9.77;;;4.97;;
2289;SDS011;1153;47.986;7.898;2022-10-31T11:42:38;6.90;;;3.00;;
2289;SDS011;1153;47.986;7.898;2022-10-31T11:45:49;8.17;;;3.67;;
2289;SDS011;1153;47.986;7.898;2022-10-31T11:47:50;3.57;;;3.20;;
2289;SDS011;1153;47.986;7.898;2022-10-31T11:50:39;4.20;;;3.40;;
2289;SDS011;1153;47.986;7.898;2022-10-31T11:53:15;4.03;;;3.40;;
2289;SDS011;1153;47.986;7.898;2022-10-31T11:55:40;4.67;;;4.10;;
2289;SDS011;1153;47.986;7.898;2022-10-31T11:58:19;8.27;;;3.70;;
2289;SDS011;1153;47.986;7.898;2022-10-31T12:00:48;6.70;;;5.77;;
2289;SDS011;1153;47.986;7.898;2022-10-31T12:03:15;5.10;;;4.13;;
2289;SDS011;1153;47.986;7.898;2022-10-31T12:05:45;13.03;;;4.70;;
2289;SDS011;1153;47.986;7.898;2022-10-31T12:08:12;5.83;;;5.27;;
2289;SDS011;1153;47.986;7.898;2022-10-31T12:10:41;5.70;;;5.20;;
2289;SDS011;1153;47.986;7.898;2022-10-31T12:15:41;9.20;;;4.50;;
2289;SDS011;1153;47.986;7.898;2022-10-31T12:24:22;9.13;;;3.70;;
2289;SDS011;1153;47.986;7.898;2022-10-31T12:29:04;3.87;;;2.60;;
2289;SDS011;1153;47.986;7.898;2022-10-31T12:37:15;3.80;;;1.20;;
2289;SDS011;1153;47.986;7.898;2022-10-31T12:55:38;3.20;;;2.23;;
2289;SDS011;1153;47.986;7.898;2022-10-31T13:00:37;2.70;;;1.40;;
2289;SDS011;1153;47.986;7.898;2022-10-31T13:07:56;4.80;;;2.20;;
2289;SDS011;1153;47.986;7.898;2022-10-31T13:12:58;5.63;;;2.73;;
2289;SDS011;1153;47.986;7.898;2022-10-31T13:15:29;6.50;;;3.23;;
2289;SDS011;1153;47.986;7.898;2022-10-31T13:17:58;6.20;;;2.20;;
2289;SDS011;1153;47.986;7.898;2022-10-31T13:20:34;6.37;;;3.30;;
2289;SDS011;1153;47.986;7.898;2022-10-31T13:25:32;9.37;;;3.53;;
2289;SDS011;1153;47.986;7.898;2022-10-31T13:30:50;12.47;;;3.23;;
2289;SDS011;1153;47.986;7.898;2022-10-31T13:33:17;9.53;;;3.70;;
2289;SDS011;1153;47.986;7.898;2022-10-31T13:35:51;6.33;;;4.07;;
2289;SDS011;1153;47.986;7.898;2022-10-31T13:38:36;13.43;;;3.20;;
2289;SDS011;1153;47.986;7.898;2022-10-31T13:41:28;7.70;;;3.90;;
2289;SDS011;1153;47.986;7.898;2022-10-31T13:46:21;4.40;;;4.00;;
2289;SDS011;1153;47.986;7.898;2022-10-31T13:48:47;3.47;;;2.77;;
2289;SDS011;1153;47.986;7.898;2022-10-31T13:51:12;5.00;;;3.70;;
2289;SDS011;1153;47.986;7.898;2022-10-31T13:53:39;4.37;;;2.70;;
2289;SDS011;1153;47.986;7.898;2022-10-31T13:58:33;3.50;;;3.30;;
2289;SDS011;1153;47.986;7.898;2022-10-31T14:03:36;11.03;;;3.67;;
2289;SDS011;1153;47.986;7.898;2022-10-31T14:06:01;4.60;;;2.40;;
2289;SDS011;1153;47.986;7.898;2022-10-31T14:08:27;4.33;;;3.10;;
2289;SDS011;1153;47.986;7.898;2022-10-31T14:10:53;6.03;;;3.57;;
2289;SDS011;1153;47.986;7.898;2022-10-31T14:13:30;4.80;;;4.03;;
2289;SDS011;1153;47.986;7.898;2022-10-31T14:16:00;10.20;;;2.90;;
2289;SDS011;1153;47.986;7.898;2022-10-31T14:18:46;5.50;;;3.13;;
2289;SDS011;1153;47.986;7.898;2022-10-31T14:21:14;3.73;;;3.00;;
2289;SDS011;1153;47.986;7.898;2022-10-31T14:23:40;7.13;;;2.70;;
2289;SDS011;1153;47.986;7.898;2022-10-31T14:28:39;5.87;;;3.03;;
2289;SDS011;1153;47.986;7.898;2022-10-31T14:31:21;3.63;;;3.27;;
2289;SDS011;1153;47.986;7.898;2022-10-31T14:33:50;6.43;;;3.27;;
2289;SDS011;1153;47.986;7.898;2022-10-31T14:36:39;3.70;;;3.40;;
2289;SDS011;1153;47.986;7.898;2022-10-31T14:44:04;4.93;;;3.10;;
2289;SDS011;1153;47.986;7.898;2022-10-31T14:46:39;8.90;;;3.50;;
2289;SDS011;1153;47.986;7.898;2022-10-31T14:51:44;4.30;;;3.40;;
2289;SDS011;1153;47.986;7.898;2022-10-31T14:54:12;4.23;;;2.60;;
2289;SDS011;1153;47.986;7.898;2022-10-31T14:56:47;6.73;;;3.30;;
2289;SDS011;1153;47.986;7.898;2022-10-31T14:59:14;8.70;;;4.37;;
2289;SDS011;1153;47.986;7.898;2022-10-31T15:01:40;7.40;;;3.27;;
2289;SDS011;1153;47.986;7.898;2022-10-31T15:04:15;7.17;;;3.40;;
2289;SDS011;1153;47.986;7.898;2022-10-31T15:06:46;8.07;;;3.53;;
2289;SDS011;1153;47.986;7.898;2022-10-31T15:09:23;9.70;;;3.73;;
2289;SDS011;1153;47.986;7.898;2022-10-31T15:11:48;8.83;;;3.97;;
2289;SDS011;1153;47.986;7.898;2022-10-31T15:14:21;4.90;;;4.40;;
2289;SDS011;1153;47.986;7.898;2022-10-31T15:16:47;7.67;;;4.40;;
2289;SDS011;1153;47.986;7.898;2022-10-31T15:19:24;7.50;;;5.23;;
2289;SDS011;1153;47.986;7.898;2022-10-31T15:21:50;9.10;;;6.90;;
2289;SDS011;1153;47.986;7.898;2022-10-31T15:24:16;11.60;;;5.13;;
2289;SDS011;1153;47.986;7.898;2022-10-31T15:26:44;4.80;;;4.33;;
2289;SDS011;1153;47.986;7.898;2022-10-31T15:29:14;3.70;;;3.40;;
2289;SDS011;1153;47.986;7.898;2022-10-31T15:31:48;12.13;;;5.77;;
2289;SDS011;1153;47.986;7.898;2022-10-31T15:34:16;11.13;;;4.90;;
2289;SDS011;1153;47.986;7.898;2022-10-31T15:36:42;5.97;;;4.40;;
2289;SDS011;1153;47.986;7.898;2022-10-31T15:39:10;7.30;;;5.73;;
2289;SDS011;1153;47.986;7.898;2022-10-31T15:44:10;7.20;;;5.30;;
2289;SDS011;1153;47.986;7.898;2022-10-31T15:46:37;6.20;;;5.60;;
2289;SDS011;1153;47.986;7.898;2022-10-31T15:49:02;5.90;;;4.53;;
2289;SDS011;1153;47.986;7.898;2022-10-31T15:51:29;9.03;;;4.73;;
2289;SDS011;1153;47.986;7.898;2022-10-31T15:53:55;5.50;;;5.00;;
2289;SDS011;1153;47.986;7.898;2022-10-31T15:56:21;5.07;;;4.67;;
2289;SDS011;1153;47.986;7.898;2022-10-31T15:58:48;11.13;;;5.80;;
2289;SDS011;1153;47.986;7.898;2022-10-31T16:03:54;18.53;;;5.80;;
2289;SDS011;1153;47.986;7.898;2022-10-31T16:06:21;10.13;;;5.40;;
2289;SDS011;1153;47.986;7.898;2022-10-31T16:08:47;10.80;;;5.13;;
2289;SDS011;1153;47.986;7.898;2022-10-31T16:13:51;12.20;;;6.00;;
2289;SDS011;1153;47.986;7.898;2022-10-31T16:16:17;12.30;;;5.63;;
2289;SDS011;1153;47.986;7.898;2022-10-31T16:18:45;6.90;;;5.97;;
2289;SDS011;1153;47.986;7.898;2022-10-31T16:21:11;7.90;;;6.10;;
2289;SDS011;1153;47.986;7.898;2022-10-31T16:23:37;13.27;;;5.40;;
2289;SDS011;1153;47.986;7.898;2022-10-31T16:26:06;10.73;;;4.80;;
2289;SDS011;1153;47.986;7.898;2022-10-31T16:28:32;9.40;;;4.93;;
2289;SDS011;1153;47.986;7.898;2022-10-31T16:30:58;5.90;;;5.43;;
2289;SDS011;1153;47.986;7.898;2022-10-31T16:33:28;7.07;;;6.47;;
2289;SDS011;1153;47.986;7.898;2022-10-31T16:35:54;8.80;;;6.47;;
2289;SDS011;1153;47.986;7.898;2022-10-31T16:38:20;6.43;;;5.73;;
2289;SDS011;1153;47.986;7.898;2022-10-31T16:40:45;5.97;;;4.53;;
2289;SDS011;1153;47.986;7.898;2022-10-31T16:43:11;7.93;;;6.73;;
2289;SDS011;1153;47.986;7.898;2022-10-31T16:45:37;12.03;;;5.43;;
2289;SDS011;1153;47.986;7.898;2022-10-31T16:48:10;11.23;;;5.67;;
2289;SDS011;1153;47.986;7.898;2022-10-31T16:50:36;5.83;;;5.23;;
2289;SDS011;1153;47.986;7.898;2022-10-31T16:53:02;9.47;;;6.50;;
2289;SDS011;1153;47.986;7.898;2022-10-31T16:55:27;6.83;;;6.20;;
2289;SDS011;1153;47.986;7.898;2022-10-31T16:57:52;10.63;;;5.13;;
2289;SDS011;1153;47.986;7.898;2022-10-31T17:00:20;10.03;;;8.50;;
2289;SDS011;1153;47.986;7.898;2022-10-31T17:02:46;8.60;;;7.70;;
2289;SDS011;1153;47.986;7.898;2022-10-31T17:05:12;9.27;;;7.20;;
2289;SDS011;1153;47.986;7.898;2022-10-31T17:07:38;8.77;;;7.60;;
2289;SDS011;1153;47.986;7.898;2022-10-31T17:10:03;7.87;;;6.90;;
2289;SDS011;1153;47.986;7.898;2022-10-31T17:12:29;13.90;;;8.10;;
2289;SDS011;1153;47.986;7.898;2022-10-31T17:14:54;10.73;;;7.23;;
2289;SDS011;1153;47.986;7.898;2022-10-31T17:17:19;9.57;;;7.07;;
2289;SDS011;1153;47.986;7.898;2022-10-31T17:19:44;6.90;;;6.20;;
2289;SDS011;1153;47.986;7.898;2022-10-31T17:22:10;14.13;;;7.07;;
2289;SDS011;1153;47.986;7.898;2022-10-31T17:24:36;7.93;;;7.10;;
2289;SDS011;1153;47.986;7.898;2022-10-31T17:27:01;10.33;;;7.30;;